Time;durP1;ratioP1;P1;durP2;ratioP2;P2;SDS_P1;SDS_P2;PMS_P1;PMS_P2;Temp;Humidity;BMP_temperature;BMP_pressure;BME280_temperature;BME280_humidity;BME280_pressure;Samples;Min_cycle;Max_cycle;Signal;HPM_P1;HPM_P2
2021/10/03 00:02:17;;;;;;;1.97;1.87;;;16.60;99.90;;;;;;5060248;28;20263;-66
2021/10/03 00:04:45;;;;;;;1.67;1.67;;;16.60;99.90;;;;;;5069743;28;20254;-66
2021/10/03 00:07:15;;;;;;;1.80;1.70;;;16.60;99.90;;;;;;5066680;28;20633;-66
2021/10/03 00:09:44;;;;;;;1.63;1.63;;;16.60;99.90;;;;;;5063014;28;20205;-66
2021/10/03 00:12:12;;;;;;;1.70;1.70;;;16.70;99.90;;;;;;5062257;28;20193;-66
2021/10/03 00:14:41;;;;;;;1.70;1.70;;;16.60;99.90;;;;;;5068929;28;20185;-66
2021/10/03 00:17:11;;;;;;;1.80;1.80;;;16.60;99.90;;;;;;5063840;28;20237;-66
2021/10/03 00:19:39;;;;;;;1.87;1.80;;;16.60;99.90;;;;;;5069624;28;20254;-66
2021/10/03 00:22:11;;;;;;;2.17;1.90;;;16.60;99.90;;;;;;5069345;28;20196;-66
2021/10/03 00:24:39;;;;;;;1.60;1.60;;;16.60;99.90;;;;;;5068513;28;20195;-66
2021/10/03 00:27:08;;;;;;;1.67;1.57;;;16.60;99.90;;;;;;5072081;28;20493;-65
2021/10/03 00:29:37;;;;;;;1.57;1.57;;;16.60;99.90;;;;;;5073116;28;20198;-66
2021/10/03 00:32:06;;;;;;;2.10;1.70;;;16.60;99.90;;;;;;5064178;28;20265;-66
2021/10/03 00:34:35;;;;;;;1.83;1.50;;;16.60;99.90;;;;;;5067799;28;20551;-66
2021/10/03 00:37:04;;;;;;;1.80;1.70;;;16.70;99.90;;;;;;5071470;28;20241;-66
2021/10/03 00:39:35;;;;;;;1.60;1.50;;;16.70;99.90;;;;;;5071349;28;20277;-66
2021/10/03 00:42:04;;;;;;;1.50;1.50;;;16.70;99.90;;;;;;5066236;28;20239;-66
2021/10/03 00:44:33;;;;;;;1.60;1.50;;;16.60;99.90;;;;;;5049394;28;20783;-67
2021/10/03 00:47:01;;;;;;;1.50;1.50;;;16.70;99.90;;;;;;5066495;28;20189;-66
2021/10/03 00:49:33;;;;;;;1.57;1.57;;;16.70;99.90;;;;;;5068685;28;20190;-66
2021/10/03 00:52:05;;;;;;;1.30;1.30;;;16.60;99.90;;;;;;5068570;28;20204;-66
2021/10/03 00:54:34;;;;;;;1.60;1.50;;;16.70;99.90;;;;;;5058923;28;20852;-65
2021/10/03 00:57:03;;;;;;;1.50;1.40;;;16.70;99.90;;;;;;5074232;28;20660;-66
2021/10/03 00:59:34;;;;;;;1.57;1.53;;;16.70;99.90;;;;;;5066935;28;20260;-66
2021/10/03 01:02:03;;;;;;;1.70;1.40;;;16.70;99.90;;;;;;5067912;28;20230;-66
2021/10/03 01:04:32;;;;;;;1.47;1.07;;;16.60;99.90;;;;;;5074031;28;20200;-66
2021/10/03 01:07:01;;;;;;;0.80;0.80;;;16.20;99.90;;;;;;5070380;28;20192;-66
2021/10/03 01:09:31;;;;;;;2.63;1.00;;;15.80;99.90;;;;;;5065868;28;20204;-67
2021/10/03 01:11:59;;;;;;;4.53;0.87;;;15.60;99.90;;;;;;5075864;28;20228;-67
2021/10/03 01:14:28;;;;;;;4.73;1.00;;;15.40;99.90;;;;;;5068090;28;20199;-67
2021/10/03 01:16:56;;;;;;;1.73;0.80;;;15.30;99.90;;;;;;5072267;28;20256;-66
2021/10/03 01:19:24;;;;;;;1.97;0.80;;;15.30;99.90;;;;;;5070114;28;20219;-67
2021/10/03 01:21:54;;;;;;;2.13;1.00;;;15.20;99.90;;;;;;5074509;28;20279;-67
2021/10/03 01:24:23;;;;;;;3.87;1.00;;;15.20;99.90;;;;;;5072130;28;20278;-67
2021/10/03 01:26:51;;;;;;;1.10;1.10;;;15.20;99.90;;;;;;5069649;28;20203;-67
2021/10/03 01:29:20;;;;;;;2.93;0.93;;;15.20;99.90;;;;;;5068023;28;20283;-67
2021/10/03 01:31:48;;;;;;;2.27;1.20;;;15.10;99.90;;;;;;5066987;28;20226;-67
2021/10/03 01:34:16;;;;;;;2.93;1.10;;;15.10;99.90;;;;;;5069365;28;20220;-67
2021/10/03 01:36:45;;;;;;;1.53;1.00;;;15.10;99.90;;;;;;5063865;28;20303;-67
2021/10/03 01:39:15;;;;;;;3.13;1.10;;;15.10;99.90;;;;;;5066178;28;20246;-66
2021/10/03 01:41:43;;;;;;;1.40;1.03;;;15.10;99.90;;;;;;5066572;28;20223;-67
2021/10/03 01:44:12;;;;;;;1.20;1.10;;;15.10;99.90;;;;;;5063322;28;20622;-67
2021/10/03 01:46:41;;;;;;;1.10;1.00;;;15.10;99.90;;;;;;5064706;28;20724;-67
2021/10/03 01:49:10;;;;;;;4.23;1.20;;;15.00;99.90;;;;;;5050112;28;20295;-67
2021/10/03 01:51:39;;;;;;;1.80;1.30;;;15.00;99.90;;;;;;5069263;28;20558;-67
2021/10/03 01:54:07;;;;;;;1.53;0.90;;;15.00;99.90;;;;;;5068678;28;20253;-67
2021/10/03 01:56:39;;;;;;;3.07;1.30;;;15.00;99.90;;;;;;5066895;28;20192;-67
2021/10/03 01:59:08;;;;;;;1.53;1.10;;;15.00;99.90;;;;;;5063327;28;20192;-67
2021/10/03 02:01:43;;;;;;;1.20;1.20;;;14.90;99.90;;;;;;5064597;28;20277;-67
2021/10/03 02:04:15;;;;;;;2.97;1.17;;;14.90;99.90;;;;;;5065648;28;20210;-66
2021/10/03 02:06:44;;;;;;;3.23;1.47;;;14.90;99.90;;;;;;5069249;28;20199;-67
2021/10/03 02:09:15;;;;;;;1.50;1.10;;;14.90;99.90;;;;;;5071546;28;20196;-66
2021/10/03 02:11:48;;;;;;;1.00;1.00;;;14.90;99.90;;;;;;5063255;28;20220;-67
2021/10/03 02:14:18;;;;;;;0.93;0.90;;;14.80;99.90;;;;;;5068268;28;20226;-67
2021/10/03 02:16:46;;;;;;;1.20;1.10;;;14.80;99.90;;;;;;5071314;28;20650;-67
2021/10/03 02:19:15;;;;;;;1.77;1.10;;;14.70;99.90;;;;;;5068233;28;20685;-67
2021/10/03 02:21:44;;;;;;;2.83;1.30;;;14.70;99.90;;;;;;5071730;28;20203;-67
2021/10/03 02:24:13;;;;;;;1.37;1.20;;;14.60;99.90;;;;;;5060873;28;20706;-67
2021/10/03 02:26:41;;;;;;;1.20;1.10;;;14.60;99.90;;;;;;5071989;28;20179;-67
2021/10/03 02:29:11;;;;;;;3.37;1.07;;;14.60;99.90;;;;;;5066260;28;20191;-67
2021/10/03 02:31:40;;;;;;;1.43;1.20;;;14.50;99.90;;;;;;5068344;28;20212;-67
2021/10/03 02:34:09;;;;;;;1.13;1.10;;;14.50;99.90;;;;;;5067155;28;20203;-67
2021/10/03 02:36:37;;;;;;;3.00;1.30;;;14.40;99.90;;;;;;5067436;28;20658;-66
2021/10/03 02:39:05;;;;;;;4.53;1.33;;;14.30;99.90;;;;;;5068719;28;20196;-67
2021/10/03 02:41:34;;;;;;;1.43;1.17;;;14.30;99.90;;;;;;5068860;28;20188;-67
2021/10/03 02:44:05;;;;;;;1.90;1.20;;;14.10;99.90;;;;;;5064907;28;20666;-67
2021/10/03 02:46:35;;;;;;;2.43;1.10;;;13.90;99.90;;;;;;5067924;28;20204;-67
2021/10/03 02:49:05;;;;;;;1.83;1.00;;;13.90;99.90;;;;;;5071829;28;20200;-67
2021/10/03 02:51:33;;;;;;;1.50;1.20;;;13.80;99.90;;;;;;5066170;28;20710;-66
2021/10/03 02:54:01;;;;;;;2.10;1.43;;;13.80;99.90;;;;;;5069198;28;20200;-67
2021/10/03 02:56:32;;;;;;;2.13;1.07;;;13.80;99.90;;;;;;5068400;28;20243;-67
2021/10/03 02:59:00;;;;;;;1.97;1.10;;;13.70;99.90;;;;;;5064908;28;20282;-67
2021/10/03 03:01:29;;;;;;;1.30;1.30;;;13.70;99.90;;;;;;5066954;28;20238;-67
2021/10/03 03:03:59;;;;;;;2.50;1.30;;;13.70;99.90;;;;;;5067463;28;20626;-67
2021/10/03 03:06:34;;;;;;;2.47;1.50;;;13.70;99.90;;;;;;5063409;28;20279;-67
2021/10/03 03:09:43;;;;;;;1.70;1.60;;;13.70;99.90;;;;;;5066726;28;20215;-67
2021/10/03 03:12:12;;;;;;;1.60;1.50;;;13.70;99.90;;;;;;5061770;28;20192;-66
2021/10/03 03:14:41;;;;;;;4.23;1.60;;;13.70;99.90;;;;;;5069683;28;20207;-67
2021/10/03 03:17:17;;;;;;;2.27;1.53;;;13.70;99.90;;;;;;5067551;28;20240;-67
2021/10/03 03:19:47;;;;;;;2.97;1.53;;;13.70;99.90;;;;;;5069385;28;20772;-67
2021/10/03 03:22:16;;;;;;;2.90;1.50;;;13.70;99.90;;;;;;5065109;28;20188;-66
2021/10/03 03:24:44;;;;;;;2.20;1.50;;;13.70;99.90;;;;;;5067854;28;20669;-67
2021/10/03 03:27:13;;;;;;;2.67;1.40;;;13.70;99.90;;;;;;5065473;28;20198;-67
2021/10/03 03:29:41;;;;;;;5.73;1.67;;;13.70;99.90;;;;;;5069493;28;20323;-67
2021/10/03 03:32:10;;;;;;;2.30;1.40;;;13.70;99.90;;;;;;5064435;28;20238;-67
2021/10/03 03:34:38;;;;;;;1.57;1.50;;;13.70;99.90;;;;;;5062537;28;20250;-67
2021/10/03 03:37:08;;;;;;;1.87;1.37;;;13.70;99.90;;;;;;5066005;28;20543;-67
2021/10/03 03:39:36;;;;;;;5.20;1.57;;;13.60;99.90;;;;;;5071865;28;20660;-67
2021/10/03 03:42:05;;;;;;;1.93;1.40;;;13.70;99.90;;;;;;5068425;28;20192;-66
2021/10/03 03:44:34;;;;;;;1.40;1.30;;;13.70;99.90;;;;;;5071804;28;20197;-67
2021/10/03 03:47:03;;;;;;;1.30;1.20;;;13.70;99.90;;;;;;5068211;28;20200;-67
2021/10/03 03:49:32;;;;;;;1.50;1.43;;;13.70;99.90;;;;;;5062419;28;20188;-66
2021/10/03 03:52:00;;;;;;;3.87;1.40;;;13.60;99.90;;;;;;5059549;28;20247;-67
2021/10/03 03:54:30;;;;;;;1.67;1.30;;;13.60;99.90;;;;;;5066243;28;20250;-67
2021/10/03 03:56:58;;;;;;;2.33;1.33;;;13.60;99.90;;;;;;5068732;28;20682;-67
2021/10/03 03:59:26;;;;;;;3.77;1.47;;;13.60;99.90;;;;;;5066282;28;20224;-67
2021/10/03 04:01:55;;;;;;;3.87;1.50;;;13.60;99.90;;;;;;5069133;28;20222;-67
2021/10/03 04:04:24;;;;;;;2.50;1.60;;;13.60;99.90;;;;;;5067201;28;20646;-67
2021/10/03 04:06:52;;;;;;;3.13;1.27;;;13.60;99.90;;;;;;5072229;28;20249;-67
2021/10/03 04:09:20;;;;;;;1.93;1.30;;;13.70;99.90;;;;;;5074065;28;20222;-67
2021/10/03 04:11:50;;;;;;;2.13;1.30;;;13.60;99.90;;;;;;5069062;28;20605;-68
2021/10/03 04:15:06;;;;;;;3.27;1.17;;;13.60;99.90;;;;;;5064666;28;20211;-67
2021/10/03 04:17:35;;;;;;;4.63;1.30;;;13.60;99.90;;;;;;5074622;28;20223;-67
2021/10/03 04:20:04;;;;;;;2.23;1.40;;;13.50;99.90;;;;;;5074043;28;20195;-67
2021/10/03 04:22:33;;;;;;;3.00;1.30;;;13.60;99.90;;;;;;5068508;28;20311;-67
2021/10/03 04:25:02;;;;;;;2.33;1.40;;;13.60;99.90;;;;;;5071623;28;20656;-67
2021/10/03 04:27:32;;;;;;;4.97;1.60;;;13.50;99.90;;;;;;5070307;28;20184;-66
2021/10/03 04:30:00;;;;;;;1.30;1.20;;;13.50;99.90;;;;;;5069699;28;20188;-68
2021/10/03 04:32:28;;;;;;;1.20;1.10;;;13.20;99.90;;;;;;5064989;28;20236;-67
2021/10/03 04:34:57;;;;;;;1.23;1.13;;;12.80;99.90;;;;;;5070995;28;20227;-68
2021/10/03 04:37:26;;;;;;;1.10;1.00;;;12.70;99.90;;;;;;5065556;28;20196;-67
2021/10/03 04:39:54;;;;;;;1.00;1.00;;;12.60;99.90;;;;;;5068755;28;20669;-68
2021/10/03 04:42:23;;;;;;;4.07;1.40;;;12.50;99.90;;;;;;5069483;28;20220;-68
2021/10/03 04:44:53;;;;;;;1.90;1.10;;;12.40;99.90;;;;;;5069702;28;20195;-68
2021/10/03 04:47:21;;;;;;;1.20;1.03;;;12.20;99.90;;;;;;5067805;28;20192;-67
2021/10/03 04:49:53;;;;;;;2.33;1.13;;;12.20;99.90;;;;;;5065103;28;20262;-67
2021/10/03 04:52:22;;;;;;;2.60;1.10;;;12.10;99.90;;;;;;5069855;28;20610;-67
2021/10/03 04:54:50;;;;;;;2.43;1.20;;;12.10;99.90;;;;;;5068128;28;20674;-68
2021/10/03 04:57:19;;;;;;;1.20;1.10;;;12.00;99.90;;;;;;5067411;28;20249;-66
2021/10/03 04:59:47;;;;;;;1.40;1.30;;;12.00;99.90;;;;;;5063058;28;20204;-68
2021/10/03 05:02:17;;;;;;;2.00;1.30;;;11.90;99.90;;;;;;5064222;28;20196;-67
2021/10/03 05:04:46;;;;;;;1.80;1.30;;;11.90;99.90;;;;;;5048184;28;20270;-68
2021/10/03 05:07:14;;;;;;;2.23;1.40;;;12.00;99.90;;;;;;5068035;28;20195;-68
2021/10/03 05:09:43;;;;;;;3.80;1.20;;;11.90;99.90;;;;;;5068642;28;20689;-67
2021/10/03 05:12:11;;;;;;;3.03;1.63;;;11.90;99.90;;;;;;5063484;28;20192;-67
2021/10/03 05:14:40;;;;;;;3.23;1.37;;;12.00;99.90;;;;;;5072453;28;21046;-67
2021/10/03 05:17:08;;;;;;;2.87;1.30;;;11.90;99.90;;;;;;5061695;28;20632;-67
2021/10/03 05:19:38;;;;;;;4.07;1.37;;;12.00;99.90;;;;;;5065980;28;20227;-67
2021/10/03 05:22:07;;;;;;;1.63;1.40;;;12.00;99.90;;;;;;5062372;28;20416;-67
2021/10/03 05:24:35;;;;;;;3.57;1.30;;;12.00;99.90;;;;;;5074275;28;20195;-67
2021/10/03 05:27:04;;;;;;;3.30;1.50;;;12.00;99.90;;;;;;5072560;28;20191;-67
2021/10/03 05:29:33;;;;;;;1.33;1.30;;;12.00;99.90;;;;;;5076470;28;20911;-68
2021/10/03 05:32:01;;;;;;;1.30;1.30;;;11.90;99.90;;;;;;5064518;28;20191;-67
2021/10/03 05:34:29;;;;;;;1.90;1.50;;;12.00;99.90;;;;;;5066945;28;20212;-67
2021/10/03 05:36:59;;;;;;;1.87;1.40;;;11.90;99.90;;;;;;5070210;28;20198;-68
2021/10/03 05:39:29;;;;;;;3.20;1.53;;;11.90;99.90;;;;;;5071764;28;20197;-67
2021/10/03 05:41:57;;;;;;;2.70;1.40;;;11.90;99.90;;;;;;5064140;28;20716;-68
2021/10/03 05:44:25;;;;;;;1.53;1.43;;;11.90;99.90;;;;;;5065613;28;20188;-68
2021/10/03 05:46:54;;;;;;;1.70;1.60;;;11.90;99.90;;;;;;5067887;28;20196;-67
2021/10/03 05:49:23;;;;;;;3.23;2.07;;;11.90;99.90;;;;;;5065264;28;20193;-66
2021/10/03 05:51:52;;;;;;;2.50;2.10;;;11.90;99.90;;;;;;5069854;28;20188;-68
2021/10/03 05:54:22;;;;;;;4.73;2.23;;;11.90;99.90;;;;;;5063152;28;20212;-68
2021/10/03 05:56:50;;;;;;;4.83;2.40;;;11.90;99.90;;;;;;5069599;28;20196;-68
2021/10/03 05:59:19;;;;;;;2.53;2.27;;;11.90;99.90;;;;;;5063262;28;20250;-68
2021/10/03 06:01:47;;;;;;;2.70;2.33;;;11.80;99.90;;;;;;5072159;28;20245;-67
2021/10/03 06:04:16;;;;;;;5.80;2.97;;;11.80;99.90;;;;;;5065212;28;20223;-68
2021/10/03 06:06:44;;;;;;;3.07;2.87;;;11.80;99.90;;;;;;5068850;28;20194;-68
2021/10/03 06:09:13;;;;;;;4.17;3.90;;;11.80;99.90;;;;;;5072823;28;20565;-67
2021/10/03 06:11:42;;;;;;;3.50;3.20;;;11.80;99.90;;;;;;5067839;28;20195;-68
2021/10/03 06:14:11;;;;;;;4.03;2.60;;;11.80;99.90;;;;;;5074792;28;20346;-67
2021/10/03 06:16:42;;;;;;;2.93;2.33;;;11.80;99.90;;;;;;5066865;28;20207;-67
2021/10/03 06:19:13;;;;;;;4.40;2.70;;;11.80;99.90;;;;;;5069286;28;20188;-67
2021/10/03 06:21:41;;;;;;;5.13;3.33;;;11.80;99.90;;;;;;5064438;28;20556;-68
2021/10/03 06:24:11;;;;;;;6.70;3.90;;;11.80;99.90;;;;;;5071273;28;20187;-67
2021/10/03 06:26:39;;;;;;;3.97;3.47;;;11.80;99.90;;;;;;5069182;28;20188;-67
2021/10/03 06:29:09;;;;;;;5.07;4.33;;;11.80;99.90;;;;;;5065825;28;20598;-67
2021/10/03 06:31:38;;;;;;;6.33;4.30;;;11.80;99.90;;;;;;5060220;28;20192;-68
2021/10/03 06:34:06;;;;;;;9.43;4.20;;;11.80;99.90;;;;;;5062268;28;20244;-67
2021/10/03 06:36:35;;;;;;;10.30;6.17;;;11.80;99.90;;;;;;5063733;28;20197;-67
2021/10/03 06:39:03;;;;;;;8.13;4.60;;;11.80;99.90;;;;;;5064467;28;20215;-68
2021/10/03 06:41:32;;;;;;;7.50;4.03;;;11.80;99.90;;;;;;5062128;28;20220;-68
2021/10/03 06:44:00;;;;;;;4.07;3.60;;;11.80;99.90;;;;;;5066569;28;20192;-68
2021/10/03 06:46:30;;;;;;;4.33;3.93;;;11.80;99.90;;;;;;5065398;28;20195;-67
2021/10/03 06:48:59;;;;;;;6.07;4.30;;;11.80;99.90;;;;;;5069352;28;20286;-68
2021/10/03 06:51:27;;;;;;;4.37;3.80;;;11.80;99.90;;;;;;5057302;28;20219;-68
2021/10/03 06:53:56;;;;;;;4.40;4.00;;;11.80;99.90;;;;;;5063979;28;20247;-67
2021/10/03 06:56:24;;;;;;;3.87;3.60;;;11.80;99.90;;;;;;5064929;28;20707;-66
2021/10/03 06:58:53;;;;;;;6.00;3.37;;;11.90;99.90;;;;;;5070214;28;20294;-68
2021/10/03 07:01:21;;;;;;;7.33;5.50;;;11.80;99.90;;;;;;5069233;28;20235;-68
2021/10/03 07:03:51;;;;;;;5.53;4.67;;;11.80;99.90;;;;;;5064196;28;20709;-68
2021/10/03 07:06:19;;;;;;;5.40;3.40;;;11.90;99.90;;;;;;5069885;28;20599;-68
2021/10/03 07:08:48;;;;;;;2.70;2.50;;;11.90;99.90;;;;;;5073591;28;20296;-68
2021/10/03 07:11:16;;;;;;;3.47;2.33;;;11.90;99.90;;;;;;5073122;28;20214;-68
2021/10/03 07:13:45;;;;;;;6.00;2.37;;;11.90;99.90;;;;;;5066128;28;20208;-68
2021/10/03 07:16:15;;;;;;;7.90;2.47;;;11.90;99.90;;;;;;5064018;28;20782;-68
2021/10/03 07:18:44;;;;;;;3.13;2.60;;;11.90;99.90;;;;;;5065304;28;20713;-68
2021/10/03 07:21:14;;;;;;;3.03;2.23;;;11.90;99.90;;;;;;5067626;28;20245;-68
2021/10/03 07:23:42;;;;;;;5.60;2.70;;;11.90;99.90;;;;;;5072626;28;20199;-67
2021/10/03 07:26:12;;;;;;;4.63;3.90;;;12.00;99.90;;;;;;5062203;28;20202;-68
2021/10/03 07:28:40;;;;;;;13.50;4.73;;;12.00;99.90;;;;;;5075117;28;22015;-68
2021/10/03 07:31:09;;;;;;;7.73;5.00;;;12.00;99.90;;;;;;5060044;28;20268;-68
2021/10/03 07:33:38;;;;;;;6.63;4.40;;;12.00;99.90;;;;;;5065355;28;20218;-68
2021/10/03 07:36:07;;;;;;;11.70;6.73;;;11.90;99.90;;;;;;5060752;28;20227;-68
2021/10/03 07:38:37;;;;;;;9.77;5.77;;;12.00;99.90;;;;;;5070765;28;20192;-68
2021/10/03 07:41:05;;;;;;;5.33;3.90;;;12.00;99.90;;;;;;5068615;28;20222;-68
2021/10/03 07:43:34;;;;;;;5.60;3.90;;;12.00;99.90;;;;;;5065405;28;20272;-67
2021/10/03 07:46:02;;;;;;;7.23;5.60;;;11.90;99.90;;;;;;5064762;28;20226;-68
2021/10/03 07:48:30;;;;;;;4.23;3.67;;;11.90;99.90;;;;;;5068044;28;20196;-68
2021/10/03 07:50:59;;;;;;;4.93;3.30;;;11.90;99.90;;;;;;5052325;28;20261;-68
2021/10/03 07:53:27;;;;;;;3.20;3.00;;;11.90;99.90;;;;;;5064044;28;20727;-67
2021/10/03 07:55:57;;;;;;;3.67;3.37;;;11.90;99.90;;;;;;5066355;28;20208;-68
2021/10/03 07:58:26;;;;;;;4.10;2.90;;;12.00;99.90;;;;;;5071551;28;20230;-68
2021/10/03 08:00:54;;;;;;;4.03;2.77;;;12.00;99.90;;;;;;5058392;28;20228;-68
2021/10/03 08:03:22;;;;;;;4.50;2.70;;;12.10;99.90;;;;;;5067404;28;20272;-67
2021/10/03 08:05:51;;;;;;;5.03;2.73;;;12.10;99.90;;;;;;5058346;28;20869;-68
2021/10/03 08:08:20;;;;;;;2.90;2.67;;;12.10;99.90;;;;;;5074655;28;20187;-68
2021/10/03 08:10:48;;;;;;;4.43;2.57;;;12.10;99.90;;;;;;5057817;28;20399;-68
2021/10/03 08:13:19;;;;;;;4.17;2.50;;;12.00;99.90;;;;;;5074504;28;20199;-67
2021/10/03 08:15:47;;;;;;;6.93;3.73;;;12.10;99.90;;;;;;5067494;28;20261;-68
2021/10/03 08:18:16;;;;;;;5.10;2.80;;;12.10;99.90;;;;;;5058655;28;20234;-68
2021/10/03 08:20:45;;;;;;;5.63;2.83;;;12.00;99.90;;;;;;5066090;28;20982;-68
2021/10/03 08:23:13;;;;;;;4.33;2.90;;;12.10;99.90;;;;;;5056635;28;20737;-68
2021/10/03 08:25:41;;;;;;;2.83;2.47;;;12.10;99.90;;;;;;5063037;28;20185;-68
2021/10/03 08:28:10;;;;;;;2.93;2.70;;;12.20;99.90;;;;;;5061044;28;20300;-68
2021/10/03 08:30:40;;;;;;;3.10;2.90;;;12.20;99.90;;;;;;5057192;28;20627;-68
2021/10/03 08:33:08;;;;;;;6.63;3.03;;;12.20;99.90;;;;;;5056924;28;20195;-67
2021/10/03 08:35:37;;;;;;;6.27;3.40;;;12.30;99.90;;;;;;5062892;28;20255;-68
2021/10/03 08:38:05;;;;;;;5.27;3.60;;;12.30;99.90;;;;;;5058780;28;20211;-67
2021/10/03 08:40:34;;;;;;;3.20;2.90;;;12.40;99.90;;;;;;5063750;28;20232;-68
2021/10/03 08:43:04;;;;;;;4.67;3.40;;;12.40;99.90;;;;;;5062128;28;20291;-68
2021/10/03 08:45:32;;;;;;;4.07;3.27;;;12.40;99.90;;;;;;5071381;28;20546;-67
2021/10/03 08:48:02;;;;;;;5.50;3.40;;;12.40;99.90;;;;;;5065066;28;20751;-68
2021/10/03 08:50:31;;;;;;;9.00;4.83;;;12.40;99.90;;;;;;5066999;28;20226;-68
2021/10/03 08:52:59;;;;;;;8.37;4.70;;;12.30;99.90;;;;;;5061177;28;20192;-68
2021/10/03 08:55:28;;;;;;;5.87;4.37;;;12.30;99.90;;;;;;5061390;28;20205;-68
2021/10/03 08:57:56;;;;;;;8.07;5.60;;;12.40;99.90;;;;;;5062718;28;20228;-68
2021/10/03 09:00:26;;;;;;;9.43;5.97;;;12.40;99.90;;;;;;5066458;28;20545;-68
2021/10/03 09:02:58;;;;;;;4.33;3.77;;;12.50;99.90;;;;;;5064400;28;20188;-68
2021/10/03 09:05:29;;;;;;;6.77;4.27;;;12.50;99.90;;;;;;5064067;28;20188;-68
2021/10/03 09:08:04;;;;;;;8.40;4.77;;;12.60;99.90;;;;;;5077830;28;20200;-68
2021/10/03 09:10:52;;;;;;;5.30;4.13;;;12.50;99.90;;;;;;5073016;28;20813;-68
2021/10/03 09:13:23;;;;;;;4.23;3.97;;;12.50;99.90;;;;;;5071002;28;20200;-68
2021/10/03 09:16:08;;;;;;;7.33;4.73;;;12.60;99.90;;;;;;5074033;28;20206;-67
2021/10/03 09:18:40;;;;;;;8.37;4.37;;;12.60;99.90;;;;;;5052782;28;20270;-68
2021/10/03 09:21:12;;;;;;;4.13;3.70;;;12.70;99.90;;;;;;5069087;28;20644;-68
2021/10/03 09:23:41;;;;;;;5.57;4.20;;;12.60;99.90;;;;;;5069427;28;20203;-68
2021/10/03 09:26:13;;;;;;;4.70;4.13;;;12.60;99.90;;;;;;5051765;28;20196;-68
2021/10/03 09:28:41;;;;;;;4.70;4.30;;;12.60;99.90;;;;;;5066678;28;20224;-68
2021/10/03 09:31:12;;;;;;;5.33;4.20;;;12.60;99.90;;;;;;5066334;28;20744;-68
2021/10/03 09:33:59;;;;;;;9.47;4.47;;;12.70;99.90;;;;;;5066217;28;20191;-67
2021/10/03 09:36:32;;;;;;;4.63;3.97;;;12.70;99.90;;;;;;5056979;28;20203;-68
2021/10/03 09:39:02;;;;;;;4.53;4.13;;;12.80;99.90;;;;;;5067593;28;20249;-68
2021/10/03 09:41:32;;;;;;;5.93;4.60;;;12.80;99.90;;;;;;5070741;28;20658;-66
2021/10/03 09:44:06;;;;;;;4.73;4.33;;;12.80;99.90;;;;;;5064765;28;20228;-67
2021/10/03 09:46:39;;;;;;;6.23;4.80;;;12.70;99.90;;;;;;5065773;28;20195;-67
2021/10/03 09:49:11;;;;;;;4.87;4.30;;;12.70;99.90;;;;;;5068890;28;20219;-68
2021/10/03 09:51:42;;;;;;;6.73;4.60;;;12.70;99.90;;;;;;5062144;28;20249;-67
2021/10/03 09:54:12;;;;;;;7.27;6.10;;;12.70;99.90;;;;;;5069576;28;20192;-68
2021/10/03 09:56:41;;;;;;;11.17;7.20;;;12.70;99.90;;;;;;5065747;28;20230;-67
2021/10/03 09:59:09;;;;;;;8.57;6.37;;;12.70;99.90;;;;;;5072986;28;20197;-67
2021/10/03 10:01:44;;;;;;;7.20;6.47;;;12.70;99.90;;;;;;5064609;28;20254;-67
2021/10/03 10:04:14;;;;;;;7.77;6.53;;;12.70;99.90;;;;;;5067699;28;20223;-68
2021/10/03 10:06:44;;;;;;;11.70;7.23;;;12.70;99.90;;;;;;5064760;28;20193;-67
2021/10/03 10:09:15;;;;;;;9.63;6.70;;;12.70;99.90;;;;;;5064618;28;20287;-68
2021/10/03 10:11:50;;;;;;;9.77;6.83;;;12.70;99.90;;;;;;5071686;28;20203;-67
2021/10/03 10:14:26;;;;;;;8.13;5.93;;;12.70;99.90;;;;;;5069072;28;20211;-67
2021/10/03 10:16:58;;;;;;;11.90;5.60;;;12.70;99.90;;;;;;5072681;28;20233;-68
2021/10/03 10:19:38;;;;;;;6.93;5.33;;;12.70;99.90;;;;;;5074699;28;20199;-67
2021/10/03 10:22:38;;;;;;;8.63;5.23;;;12.70;99.90;;;;;;5070034;28;20226;-67
2021/10/03 10:25:11;;;;;;;7.23;4.87;;;12.60;99.90;;;;;;5071211;28;20234;-68
2021/10/03 10:27:59;;;;;;;5.63;5.00;;;12.70;99.90;;;;;;5068969;28;20218;-68
2021/10/03 10:30:30;;;;;;;4.93;4.40;;;12.60;99.90;;;;;;5066239;28;20188;-68
2021/10/03 10:33:20;;;;;;;7.60;4.40;;;12.50;99.90;;;;;;5062485;28;20298;-68
2021/10/03 10:35:50;;;;;;;7.00;4.17;;;12.60;99.90;;;;;;5062440;28;20253;-68
2021/10/03 10:38:21;;;;;;;4.73;4.33;;;12.50;99.90;;;;;;5069609;28;20637;-68
2021/10/03 10:40:51;;;;;;;5.00;4.53;;;12.50;99.90;;;;;;5068086;28;20250;-67
2021/10/03 10:43:46;;;;;;;5.87;4.87;;;12.40;99.90;;;;;;5069382;28;20479;-67
2021/10/03 10:46:57;;;;;;;9.40;5.17;;;12.40;99.90;;;;;;5083023;28;20712;-67
2021/10/03 10:49:39;;;;;;;6.10;4.60;;;12.40;99.90;;;;;;5070393;28;20611;-67
2021/10/03 10:52:45;;;;;;;5.07;4.50;;;12.30;99.90;;;;;;5072879;28;20234;-67
2021/10/03 10:55:28;;;;;;;8.70;4.40;;;12.20;99.90;;;;;;5074962;28;20283;-67
2021/10/03 10:58:14;;;;;;;5.30;4.30;;;12.20;99.90;;;;;;5069642;28;20220;-67
2021/10/03 11:00:56;;;;;;;6.43;3.60;;;12.20;99.90;;;;;;5065507;28;20193;-67
2021/10/03 11:03:55;;;;;;;6.33;4.13;;;12.20;99.90;;;;;;5066454;28;20200;-67
2021/10/03 11:07:02;;;;;;;5.67;4.00;;;12.20;99.90;;;;;;5065464;28;20192;-67
2021/10/03 11:10:01;;;;;;;6.37;3.40;;;12.20;99.90;;;;;;5062860;28;20190;-68
2021/10/03 11:12:35;;;;;;;6.17;3.57;;;12.20;99.90;;;;;;5068742;28;20646;-67
2021/10/03 11:15:24;;;;;;;5.63;3.93;;;12.20;99.90;;;;;;5066124;28;20687;-67
2021/10/03 11:17:53;;;;;;;5.57;3.77;;;12.20;99.90;;;;;;5072911;28;20624;-67
2021/10/03 11:20:22;;;;;;;4.33;3.43;;;12.20;99.90;;;;;;5061205;28;20249;-67
2021/10/03 11:22:50;;;;;;;3.27;3.00;;;12.20;99.90;;;;;;5070757;28;20478;-67
2021/10/03 11:25:24;;;;;;;4.13;3.30;;;12.20;99.90;;;;;;5071217;28;20238;-68
2021/10/03 11:27:55;;;;;;;4.90;3.43;;;12.30;99.90;;;;;;5068085;28;20225;-67
2021/10/03 11:30:23;;;;;;;2.60;2.50;;;12.40;99.90;;;;;;5063234;28;20223;-68
2021/10/03 11:32:52;;;;;;;2.77;2.53;;;12.30;99.90;;;;;;5070200;28;20245;-68
2021/10/03 11:35:20;;;;;;;3.10;2.50;;;12.30;99.90;;;;;;5062173;28;20196;-67
2021/10/03 11:37:52;;;;;;;2.20;2.10;;;12.30;99.90;;;;;;5063903;28;20272;-68
2021/10/03 11:40:23;;;;;;;2.40;2.30;;;12.30;99.90;;;;;;5053814;28;20201;-68
2021/10/03 11:42:54;;;;;;;2.27;2.17;;;12.30;99.90;;;;;;5073349;28;20195;-68
2021/10/03 11:45:24;;;;;;;1.90;1.80;;;12.20;99.90;;;;;;5071529;28;20649;-67
2021/10/03 11:47:55;;;;;;;2.20;2.10;;;12.30;99.90;;;;;;5061245;28;20698;-67
2021/10/03 11:50:28;;;;;;;2.00;1.90;;;12.20;99.90;;;;;;5059418;28;20203;-68
2021/10/03 11:52:59;;;;;;;2.43;2.30;;;12.20;99.90;;;;;;5061233;28;20200;-67
2021/10/03 11:55:36;;;;;;;2.60;2.40;;;12.10;99.90;;;;;;5060095;28;20204;-67
2021/10/03 11:58:07;;;;;;;2.37;2.27;;;12.10;99.90;;;;;;5065165;28;20214;-68
2021/10/03 12:00:49;;;;;;;2.70;2.50;;;12.00;99.90;;;;;;5060057;28;20212;-67
2021/10/03 12:03:18;;;;;;;2.50;2.37;;;12.10;99.90;;;;;;5040012;28;20262;-68
2021/10/03 12:05:47;;;;;;;2.47;2.37;;;12.10;99.90;;;;;;5063270;28;20199;-68
2021/10/03 12:08:17;;;;;;;2.87;2.60;;;12.20;99.90;;;;;;5064005;28;20680;-68
2021/10/03 12:10:48;;;;;;;2.50;2.40;;;12.10;99.90;;;;;;5063648;28;20188;-67
2021/10/03 12:13:20;;;;;;;2.67;2.47;;;12.00;99.90;;;;;;5063080;28;20469;-68
2021/10/03 12:15:54;;;;;;;2.57;2.37;;;12.10;99.90;;;;;;5066073;28;20301;-67
2021/10/03 12:18:50;;;;;;;2.40;2.20;;;12.10;99.90;;;;;;5059820;28;20228;-68
2021/10/03 12:21:27;;;;;;;2.17;2.07;;;12.00;99.90;;;;;;5069939;28;20222;-68
2021/10/03 12:24:07;;;;;;;2.70;2.07;;;12.00;99.90;;;;;;5062510;28;20193;-68
2021/10/03 12:26:38;;;;;;;2.10;2.00;;;12.00;99.90;;;;;;5067753;28;20190;-67
2021/10/03 12:29:23;;;;;;;2.17;2.07;;;12.00;99.90;;;;;;5066823;28;20181;-68
2021/10/03 12:32:10;;;;;;;3.43;2.33;;;12.00;99.90;;;;;;5068062;28;20188;-67
2021/10/03 12:34:42;;;;;;;2.77;2.57;;;12.10;99.90;;;;;;5058842;28;20192;-68
2021/10/03 12:37:32;;;;;;;2.10;2.00;;;12.10;99.90;;;;;;5068359;28;20695;-69
2021/10/03 12:40:05;;;;;;;2.83;2.20;;;12.10;99.90;;;;;;5052894;28;20639;-67
2021/10/03 12:42:34;;;;;;;3.13;2.47;;;12.10;99.90;;;;;;5066988;28;20199;-68
2021/10/03 12:45:05;;;;;;;2.50;2.10;;;12.10;99.90;;;;;;5068762;28;20769;-68
2021/10/03 12:47:38;;;;;;;4.03;2.10;;;12.20;99.90;;;;;;5066738;28;20543;-67
2021/10/03 12:50:08;;;;;;;2.10;2.10;;;12.20;99.90;;;;;;5066643;28;20220;-67
2021/10/03 12:52:36;;;;;;;2.10;1.83;;;12.20;99.90;;;;;;5062862;28;20192;-67
2021/10/03 12:55:05;;;;;;;2.17;2.07;;;12.30;99.90;;;;;;5063383;28;20611;-67
2021/10/03 12:57:34;;;;;;;2.10;2.00;;;12.30;99.90;;;;;;5066999;28;20264;-68
2021/10/03 13:00:04;;;;;;;1.93;1.83;;;12.40;99.90;;;;;;5069743;28;20624;-68
2021/10/03 13:02:32;;;;;;;1.83;1.80;;;12.40;99.90;;;;;;5060476;28;20191;-67
2021/10/03 13:05:10;;;;;;;3.67;1.93;;;12.40;99.90;;;;;;5067871;28;20666;-68
2021/10/03 13:07:39;;;;;;;1.87;1.77;;;12.40;99.90;;;;;;5073073;28;20678;-67